Terminal Aerodrome Forecast
Issued by NWS

Home | Current Version | Previous Version | Text Only | Print | Product List | Glossary On
Versions: 1 2 3 4 5 6 7 8 9 10 11 12 13 14 15 16 17 18 19 20 21
000
FTUS46 KSEW 282320
TAFPAE
TAF
KPAE 282320Z 2900/2924 22005KT P6SM OVC025
     FM290100 31005KT P6SM SCT030
     FM290600 VRB03KT P6SM SCT050 BKN100
     FM291300 VRB03KT P6SM OVC012
     FM291800 29006KT P6SM BKN020
     FM292100 31007KT P6SM SCT030 SCT250=

USA.gov is the U.S. government's official web portal to all federal, state and local government web resources and services.